Time;durP1;ratioP1;P1;durP2;ratioP2;P2;SDS_P1;SDS_P2;PMS_P1;PMS_P2;Temp;Humidity;BMP_temperature;BMP_pressure;BME280_temperature;BME280_humidity;BME280_pressure;Samples;Min_cycle;Max_cycle;Signal;HPM_P1;HPM_P2
2022/08/30 00:01:33;;;;;;;0.10;0.10;;;;;;;;;;1878275;76;26729;-43
2022/08/30 00:04:01;;;;;;;0.03;0.03;;;;;;;;;;1874134;76;26287;-42
2022/08/30 00:06:28;;;;;;;0.00;0.00;;;;;;;;;;1877519;76;27515;-42
2022/08/30 00:08:56;;;;;;;0.10;0.10;;;;;;;;;;1888159;75;26281;-44
2022/08/30 00:11:25;;;;;;;0.10;0.10;;;;;;;;;;1854147;76;26323;-41
2022/08/30 00:13:54;;;;;;;0.20;0.20;;;;;;;;;;1872535;76;26249;-43
2022/08/30 00:16:22;;;;;;;0.10;0.10;;;;;;;;;;1867199;76;26682;-42
2022/08/30 00:18:50;;;;;;;0.10;0.10;;;;;;;;;;1862410;76;26258;-41
2022/08/30 00:21:17;;;;;;;0.10;0.10;;;;;;;;;;1864149;76;25764;-45
2022/08/30 00:23:45;;;;;;;0.10;0.10;;;;;;;;;;1871938;76;26626;-42
2022/08/30 00:26:12;;;;;;;0.10;0.10;;;;;;;;;;1871639;76;26268;-40
2022/08/30 00:28:39;;;;;;;0.10;0.10;;;;;;;;;;1875518;76;26233;-42
2022/08/30 00:31:07;;;;;;;0.10;0.10;;;;;;;;;;1876460;76;26261;-42
2022/08/30 00:33:34;;;;;;;0.08;0.08;;;;;;;;;;1873764;75;26249;-43
2022/08/30 00:36:02;;;;;;;0.00;0.00;;;;;;;;;;1878965;76;26260;-43
2022/08/30 00:38:29;;;;;;;12.63;0.20;;;;;;;;;;1857556;76;26257;-46
2022/08/30 00:40:58;;;;;;;0.17;0.10;;;;;;;;;;1862897;75;26304;-42
2022/08/30 00:43:27;;;;;;;0.10;0.10;;;;;;;;;;1878536;76;26214;-42
2022/08/30 00:45:55;;;;;;;0.10;0.10;;;;;;;;;;1873978;76;26627;-42
2022/08/30 00:48:22;;;;;;;0.00;0.00;;;;;;;;;;1866225;76;26292;-45
2022/08/30 00:50:52;;;;;;;0.00;0.00;;;;;;;;;;1873449;76;26323;-43
2022/08/30 00:53:21;;;;;;;0.00;0.00;;;;;;;;;;1877020;76;26280;-42
2022/08/30 00:55:49;;;;;;;0.37;0.10;;;;;;;;;;1877788;76;26735;-43
2022/08/30 00:58:20;;;;;;;0.10;0.10;;;;;;;;;;1864436;76;26265;-43
2022/08/30 01:00:52;;;;;;;0.00;0.00;;;;;;;;;;1874538;76;26524;-43
2022/08/30 01:03:20;;;;;;;0.10;0.10;;;;;;;;;;1872199;76;26281;-44
2022/08/30 01:05:49;;;;;;;0.10;0.10;;;;;;;;;;1864704;75;26269;-42
2022/08/30 01:08:16;;;;;;;0.00;0.00;;;;;;;;;;1878298;76;26246;-43
2022/08/30 01:10:44;;;;;;;0.30;0.13;;;;;;;;;;1876844;76;26839;-44
2022/08/30 01:13:12;;;;;;;0.10;0.10;;;;;;;;;;1876986;76;26262;-42
2022/08/30 01:15:40;;;;;;;0.10;0.10;;;;;;;;;;1875154;76;26272;-44
2022/08/30 01:18:10;;;;;;;0.10;0.10;;;;;;;;;;1872365;76;26300;-42
2022/08/30 01:20:38;;;;;;;0.10;0.10;;;;;;;;;;1865908;76;26349;-43
2022/08/30 01:23:07;;;;;;;0.20;0.20;;;;;;;;;;1867845;75;26752;-43
2022/08/30 01:25:35;;;;;;;0.10;0.10;;;;;;;;;;1878873;76;26737;-42
2022/08/30 01:28:06;;;;;;;0.00;0.00;;;;;;;;;;1872543;76;26319;-43
2022/08/30 01:30:34;;;;;;;0.10;0.10;;;;;;;;;;1879257;76;26297;-42
2022/08/30 01:33:03;;;;;;;0.10;0.10;;;;;;;;;;1867953;76;26319;-43
2022/08/30 01:35:34;;;;;;;0.10;0.10;;;;;;;;;;1863411;76;26827;-43
2022/08/30 01:38:02;;;;;;;0.20;0.10;;;;;;;;;;1863850;76;26346;-43
2022/08/30 01:40:29;;;;;;;0.10;0.10;;;;;;;;;;1859579;76;26657;-41
2022/08/30 01:42:56;;;;;;;0.10;0.10;;;;;;;;;;1871397;75;26253;-43
2022/08/30 01:45:24;;;;;;;0.85;0.10;;;;;;;;;;1872719;76;26330;-41
2022/08/30 01:47:51;;;;;;;0.00;0.00;;;;;;;;;;1878472;76;26197;-43
2022/08/30 01:50:18;;;;;;;0.10;0.10;;;;;;;;;;1878528;76;26257;-43
2022/08/30 01:52:45;;;;;;;0.10;0.10;;;;;;;;;;1877516;76;26272;-43
2022/08/30 01:55:13;;;;;;;0.00;0.00;;;;;;;;;;1875603;76;26871;-43
2022/08/30 01:57:40;;;;;;;0.10;0.10;;;;;;;;;;1878799;76;26307;-43
2022/08/30 02:00:08;;;;;;;0.00;0.00;;;;;;;;;;1878458;76;26253;-43
2022/08/30 02:02:36;;;;;;;0.00;0.00;;;;;;;;;;1872094;75;26737;-42
2022/08/30 02:05:03;;;;;;;0.00;0.00;;;;;;;;;;1869085;76;26315;-42
2022/08/30 02:07:31;;;;;;;0.00;0.00;;;;;;;;;;1879687;76;26257;-42
2022/08/30 02:09:59;;;;;;;0.05;0.05;;;;;;;;;;1854357;76;26352;-42
2022/08/30 02:12:26;;;;;;;0.10;0.10;;;;;;;;;;1870014;76;26205;-42
2022/08/30 02:14:53;;;;;;;0.78;0.20;;;;;;;;;;1878218;75;26752;-44
2022/08/30 02:17:21;;;;;;;0.13;0.13;;;;;;;;;;1871242;76;26374;-44
2022/08/30 02:19:48;;;;;;;0.03;0.03;;;;;;;;;;1857572;76;26352;-42
2022/08/30 02:22:16;;;;;;;0.10;0.10;;;;;;;;;;1878154;76;26618;-43
2022/08/30 02:24:43;;;;;;;0.10;0.10;;;;;;;;;;1875428;76;26293;-42
2022/08/30 02:27:10;;;;;;;0.13;0.13;;;;;;;;;;1878545;76;26366;-42
2022/08/30 02:29:38;;;;;;;0.10;0.10;;;;;;;;;;1873974;76;26242;-43
2022/08/30 02:32:05;;;;;;;0.10;0.10;;;;;;;;;;1870027;76;26670;-43
2022/08/30 02:34:32;;;;;;;0.10;0.10;;;;;;;;;;1863268;75;26263;-43
2022/08/30 02:37:00;;;;;;;0.10;0.10;;;;;;;;;;1864324;76;26245;-41
2022/08/30 02:39:27;;;;;;;0.10;0.10;;;;;;;;;;1872437;76;26283;-43
2022/08/30 02:41:54;;;;;;;0.20;0.20;;;;;;;;;;1878394;76;26838;-40
2022/08/30 02:44:21;;;;;;;0.00;0.00;;;;;;;;;;1858150;76;26262;-45
2022/08/30 02:46:49;;;;;;;0.10;0.10;;;;;;;;;;1873965;76;26281;-43
2022/08/30 02:49:16;;;;;;;0.10;0.10;;;;;;;;;;1870111;76;26292;-44
2022/08/30 02:51:44;;;;;;;0.10;0.10;;;;;;;;;;1867185;76;26768;-42
2022/08/30 02:54:17;;;;;;;0.10;0.10;;;;;;;;;;1859915;76;26728;-41
2022/08/30 02:56:41;;;;;;;0.10;0.10;;;;;;;;;;1861978;76;26322;-42
2022/08/30 02:59:08;;;;;;;0.10;0.10;;;;;;;;;;1862777;75;26284;-42
2022/08/30 03:01:37;;;;;;;0.10;0.10;;;;;;;;;;1869711;75;26252;-41
2022/08/30 03:04:04;;;;;;;0.00;0.00;;;;;;;;;;1864908;76;26383;-41
2022/08/30 03:06:32;;;;;;;0.10;0.10;;;;;;;;;;1866922;76;26229;-42
2022/08/30 03:08:59;;;;;;;0.10;0.10;;;;;;;;;;1873857;76;26279;-41
2022/08/30 03:11:27;;;;;;;0.00;0.00;;;;;;;;;;1862000;76;26343;-41
2022/08/30 03:13:55;;;;;;;0.03;0.03;;;;;;;;;;1855404;76;26757;-41
2022/08/30 03:16:22;;;;;;;0.05;0.05;;;;;;;;;;1871858;75;26372;-41
2022/08/30 03:18:49;;;;;;;0.10;0.10;;;;;;;;;;1855925;76;26313;-44
2022/08/30 03:21:17;;;;;;;0.10;0.10;;;;;;;;;;1847199;77;26637;-41
2022/08/30 03:23:44;;;;;;;1.10;0.10;;;;;;;;;;1853866;76;26228;-42
2022/08/30 03:26:13;;;;;;;0.10;0.10;;;;;;;;;;1854521;76;26297;-42
2022/08/30 03:28:41;;;;;;;0.10;0.10;;;;;;;;;;1871060;76;26268;-41
2022/08/30 03:31:09;;;;;;;0.08;0.08;;;;;;;;;;1878158;76;26323;-41
2022/08/30 03:33:38;;;;;;;0.20;0.15;;;;;;;;;;1863143;76;26336;-41
2022/08/30 03:36:06;;;;;;;0.10;0.10;;;;;;;;;;1878063;76;26313;-42
2022/08/30 03:38:33;;;;;;;0.17;0.17;;;;;;;;;;1875186;76;26761;-42
2022/08/30 03:41:01;;;;;;;0.10;0.10;;;;;;;;;;1877794;76;26245;-41
2022/08/30 03:43:28;;;;;;;0.08;0.08;;;;;;;;;;1867934;76;26245;-44
2022/08/30 03:45:55;;;;;;;0.10;0.10;;;;;;;;;;1874140;76;26284;-41
2022/08/30 03:48:24;;;;;;;0.10;0.10;;;;;;;;;;1874953;76;26209;-42
2022/08/30 03:50:52;;;;;;;0.20;0.20;;;;;;;;;;1873811;76;27499;-42
2022/08/30 03:53:20;;;;;;;0.62;0.10;;;;;;;;;;1877689;76;26269;-41
2022/08/30 03:55:48;;;;;;;0.10;0.10;;;;;;;;;;1875052;76;26327;-42
2022/08/30 03:58:15;;;;;;;0.15;0.15;;;;;;;;;;1876501;76;26375;-42
2022/08/30 04:00:42;;;;;;;0.10;0.10;;;;;;;;;;1866754;76;26755;-41
2022/08/30 04:03:10;;;;;;;0.10;0.10;;;;;;;;;;1868347;76;26280;-43
2022/08/30 04:05:37;;;;;;;0.35;0.17;;;;;;;;;;1858872;76;26362;-43
2022/08/30 04:08:05;;;;;;;0.30;0.20;;;;;;;;;;1860511;76;26282;-42
2022/08/30 04:10:32;;;;;;;0.20;0.20;;;;;;;;;;1863659;76;26253;-43
2022/08/30 04:13:00;;;;;;;0.10;0.10;;;;;;;;;;1868655;76;26358;-43
2022/08/30 04:15:27;;;;;;;0.10;0.10;;;;;;;;;;1867137;76;26673;-42
2022/08/30 04:17:55;;;;;;;0.25;0.20;;;;;;;;;;1865683;75;26322;-42
2022/08/30 04:20:22;;;;;;;0.17;0.17;;;;;;;;;;1841447;76;26292;-42
2022/08/30 04:36:13;;;;;;;0.30;0.20;;;;;;;;;;2020202;69;27866;-43
2022/08/30 04:38:41;;;;;;;1.42;0.25;;;;;;;;;;2007810;71;26295;-43
2022/08/30 04:41:14;;;;;;;0.20;0.20;;;;;;;;;;1978701;71;26814;-43
2022/08/30 04:43:42;;;;;;;0.42;0.42;;;;;;;;;;1991129;70;26536;-44
2022/08/30 04:46:09;;;;;;;1.10;0.45;;;;;;;;;;1979496;71;26307;-42
2022/08/30 04:48:37;;;;;;;0.57;0.50;;;;;;;;;;1977540;70;26545;-43
2022/08/30 04:51:06;;;;;;;0.90;0.50;;;;;;;;;;1987027;70;26254;-42
2022/08/30 04:53:34;;;;;;;0.60;0.60;;;;;;;;;;1988516;70;26237;-42
2022/08/30 04:56:02;;;;;;;1.47;0.62;;;;;;;;;;1997547;71;26264;-42
2022/08/30 04:58:29;;;;;;;0.78;0.78;;;;;;;;;;1980157;71;26266;-41
2022/08/30 05:00:56;;;;;;;2.25;0.90;;;;;;;;;;1986948;71;26845;-41
2022/08/30 05:03:23;;;;;;;0.95;0.88;;;;;;;;;;1974099;70;26688;-41
2022/08/30 05:05:51;;;;;;;1.30;0.90;;;;;;;;;;1979902;71;26823;-43
2022/08/30 05:08:19;;;;;;;1.00;1.00;;;;;;;;;;1978393;70;26270;-43
2022/08/30 05:10:49;;;;;;;1.30;1.30;;;;;;;;;;1977111;71;27589;-42
2022/08/30 05:13:17;;;;;;;2.65;1.40;;;;;;;;;;2004715;71;26234;-42
2022/08/30 05:15:45;;;;;;;2.30;1.70;;;;;;;;;;1978154;71;26266;-41
2022/08/30 05:18:14;;;;;;;1.90;1.80;;;;;;;;;;1989896;71;26259;-42
2022/08/30 05:20:41;;;;;;;4.30;2.20;;;;;;;;;;1973284;70;26321;-42
2022/08/30 05:23:09;;;;;;;2.55;2.00;;;;;;;;;;1984474;71;26229;-43
2022/08/30 05:25:37;;;;;;;2.02;1.80;;;;;;;;;;1980845;70;26302;-42
2022/08/30 05:28:05;;;;;;;1.98;1.77;;;;;;;;;;1982990;71;26743;-45
2022/08/30 05:30:34;;;;;;;2.67;1.90;;;;;;;;;;1974820;70;26185;-42
2022/08/30 05:33:01;;;;;;;5.80;1.80;;;;;;;;;;1981437;71;26850;-42
2022/08/30 05:35:29;;;;;;;1.80;1.70;;;;;;;;;;1989932;70;26247;-42
2022/08/30 05:37:56;;;;;;;1.72;1.60;;;;;;;;;;1981724;70;27022;-43
2022/08/30 05:40:23;;;;;;;1.70;1.57;;;;;;;;;;1988275;71;26233;-42
2022/08/30 05:42:51;;;;;;;1.82;1.40;;;;;;;;;;1981756;71;26329;-42
2022/08/30 05:45:18;;;;;;;2.42;1.67;;;;;;;;;;1976528;71;26236;-42
2022/08/30 05:47:46;;;;;;;3.72;1.87;;;;;;;;;;1970383;71;26313;-44
2022/08/30 05:50:14;;;;;;;3.40;1.70;;;;;;;;;;1977095;71;26190;-42
2022/08/30 05:52:43;;;;;;;3.80;1.47;;;;;;;;;;2002801;70;26281;-42
2022/08/30 05:55:11;;;;;;;1.50;1.42;;;;;;;;;;1972311;71;26317;-42
2022/08/30 05:57:39;;;;;;;2.27;1.50;;;;;;;;;;1988742;70;26363;-42
2022/08/30 06:00:11;;;;;;;1.92;1.40;;;;;;;;;;1989684;70;26773;-43
2022/08/30 06:02:39;;;;;;;1.52;1.37;;;;;;;;;;1968586;71;26264;-42
2022/08/30 06:05:07;;;;;;;2.27;1.27;;;;;;;;;;1970409;71;26662;-42
2022/08/30 06:07:35;;;;;;;1.30;1.20;;;;;;;;;;1971595;71;26204;-44
2022/08/30 06:10:03;;;;;;;2.10;1.20;;;;;;;;;;1980758;71;26217;-42
2022/08/30 06:12:30;;;;;;;1.07;1.07;;;;;;;;;;1986574;70;26229;-42
2022/08/30 06:14:57;;;;;;;2.15;1.30;;;;;;;;;;1983495;71;26242;-41
2022/08/30 06:17:25;;;;;;;1.15;1.10;;;;;;;;;;2001321;71;26222;-43
2022/08/30 06:19:52;;;;;;;1.30;1.00;;;;;;;;;;1977435;71;26244;-43
2022/08/30 06:22:20;;;;;;;0.95;0.95;;;;;;;;;;1978344;71;26213;-42
2022/08/30 06:24:47;;;;;;;1.00;1.00;;;;;;;;;;1984877;71;26366;-42
2022/08/30 06:27:14;;;;;;;0.90;0.90;;;;;;;;;;1992721;70;26375;-43
2022/08/30 06:29:41;;;;;;;1.00;1.00;;;;;;;;;;1979101;70;26257;-43
2022/08/30 06:32:09;;;;;;;1.47;1.07;;;;;;;;;;1977996;71;26255;-41
2022/08/30 06:34:36;;;;;;;0.90;0.90;;;;;;;;;;1994050;70;26692;-42
2022/08/30 06:37:03;;;;;;;1.67;0.98;;;;;;;;;;1985885;70;27449;-42
2022/08/30 06:39:30;;;;;;;1.75;0.90;;;;;;;;;;1991055;70;26310;-46
2022/08/30 06:41:58;;;;;;;0.70;0.70;;;;;;;;;;1987391;71;26272;-42
2022/08/30 06:44:25;;;;;;;1.40;1.10;;;;;;;;;;1971627;71;26329;-43
2022/08/30 06:46:52;;;;;;;0.70;0.70;;;;;;;;;;1989785;70;26295;-41
2022/08/30 06:49:20;;;;;;;0.75;0.75;;;;;;;;;;1976837;71;26699;-43
2022/08/30 06:51:47;;;;;;;0.60;0.60;;;;;;;;;;1965662;71;26243;-40
2022/08/30 06:54:14;;;;;;;1.60;0.70;;;;;;;;;;1971351;71;26341;-40
2022/08/30 06:56:42;;;;;;;0.60;0.60;;;;;;;;;;1985269;70;26305;-40
2022/08/30 06:59:10;;;;;;;0.70;0.65;;;;;;;;;;1992251;71;26266;-42
2022/08/30 07:01:38;;;;;;;0.70;0.70;;;;;;;;;;1968409;71;26262;-46
2022/08/30 07:04:05;;;;;;;0.50;0.50;;;;;;;;;;1984409;70;26272;-45
2022/08/30 07:06:33;;;;;;;0.80;0.60;;;;;;;;;;1973545;71;26324;-44
2022/08/30 07:09:00;;;;;;;0.60;0.60;;;;;;;;;;1982463;71;26205;-42
2022/08/30 07:11:29;;;;;;;0.60;0.60;;;;;;;;;;1963045;70;26256;-43
2022/08/30 07:13:56;;;;;;;0.90;0.60;;;;;;;;;;1999065;70;27142;-42
2022/08/30 07:16:24;;;;;;;0.60;0.60;;;;;;;;;;1973457;71;26299;-46
2022/08/30 07:18:53;;;;;;;0.50;0.50;;;;;;;;;;1958370;71;26537;-42
2022/08/30 07:21:22;;;;;;;0.62;0.53;;;;;;;;;;1995449;71;26301;-42
2022/08/30 07:23:49;;;;;;;0.62;0.62;;;;;;;;;;2007547;70;26657;-43
2022/08/30 07:26:18;;;;;;;0.30;0.30;;;;;;;;;;1981300;71;26354;-44
2022/08/30 07:28:45;;;;;;;0.42;0.42;;;;;;;;;;1980926;71;26370;-44
2022/08/30 07:31:14;;;;;;;0.50;0.50;;;;;;;;;;1965140;71;26498;-45
2022/08/30 07:33:42;;;;;;;0.45;0.42;;;;;;;;;;1967454;71;26735;-41
2022/08/30 07:36:09;;;;;;;0.50;0.50;;;;;;;;;;1983049;70;26237;-42
2022/08/30 07:38:37;;;;;;;1.30;0.50;;;;;;;;;;1985599;71;26745;-44
2022/08/30 07:41:04;;;;;;;0.50;0.50;;;;;;;;;;1988642;70;26194;-41
2022/08/30 07:43:32;;;;;;;0.85;0.50;;;;;;;;;;1997793;70;26279;-42
2022/08/30 07:46:00;;;;;;;0.40;0.40;;;;;;;;;;1982504;71;26262;-42
2022/08/30 07:48:28;;;;;;;0.40;0.40;;;;;;;;;;1962273;71;26185;-42
2022/08/30 07:50:55;;;;;;;0.40;0.40;;;;;;;;;;1969368;71;26327;-42
2022/08/30 07:53:22;;;;;;;0.37;0.37;;;;;;;;;;1986066;71;26802;-40
2022/08/30 07:55:50;;;;;;;0.40;0.40;;;;;;;;;;1964094;71;26279;-40
2022/08/30 07:58:17;;;;;;;0.45;0.45;;;;;;;;;;1980811;71;26286;-42
2022/08/30 08:00:44;;;;;;;0.45;0.45;;;;;;;;;;1980921;71;27963;-40
2022/08/30 08:03:12;;;;;;;0.33;0.33;;;;;;;;;;2002697;70;26228;-41
2022/08/30 08:05:40;;;;;;;0.30;0.30;;;;;;;;;;1997206;70;26288;-40
2022/08/30 08:08:08;;;;;;;0.28;0.28;;;;;;;;;;1996043;71;26289;-39
2022/08/30 08:10:39;;;;;;;0.40;0.40;;;;;;;;;;1983293;71;26853;-49
2022/08/30 08:13:06;;;;;;;0.40;0.40;;;;;;;;;;1975473;70;26285;-42
2022/08/30 08:15:33;;;;;;;0.30;0.30;;;;;;;;;;1973852;70;26274;-42
2022/08/30 08:18:01;;;;;;;0.30;0.30;;;;;;;;;;1978900;70;26337;-42
2022/08/30 08:20:28;;;;;;;0.30;0.30;;;;;;;;;;1966343;71;26283;-43
2022/08/30 08:22:56;;;;;;;0.20;0.20;;;;;;;;;;1983704;71;26861;-42
2022/08/30 08:25:23;;;;;;;0.40;0.40;;;;;;;;;;1967186;71;26241;-42
2022/08/30 08:27:51;;;;;;;0.30;0.30;;;;;;;;;;1981031;70;26324;-43
2022/08/30 08:30:19;;;;;;;0.30;0.30;;;;;;;;;;1977773;71;26229;-41
2022/08/30 08:32:46;;;;;;;0.40;0.30;;;;;;;;;;1978720;71;26287;-44
2022/08/30 08:35:14;;;;;;;0.28;0.28;;;;;;;;;;1962345;72;26316;-41
2022/08/30 08:37:41;;;;;;;0.20;0.20;;;;;;;;;;1969086;71;26233;-40
2022/08/30 08:40:10;;;;;;;0.50;0.30;;;;;;;;;;1989693;70;26709;-40
2022/08/30 08:42:57;;;;;;;0.30;0.30;;;;;;;;;;1976505;70;26326;-41
2022/08/30 08:45:41;;;;;;;0.50;0.30;;;;;;;;;;1988233;70;26807;-47
2022/08/30 08:48:27;;;;;;;0.47;0.35;;;;;;;;;;1977923;71;26213;-42
2022/08/30 08:53:40;;;;;;;3.08;0.65;;;;;;;;;;1975742;71;26763;-43
2022/08/30 08:56:11;;;;;;;1.07;0.57;;;;;;;;;;1976757;71;26271;-42
2022/08/30 08:58:39;;;;;;;1.05;0.50;;;;;;;;;;1979432;71;26296;-42
2022/08/30 09:01:07;;;;;;;5.62;0.60;;;;;;;;;;1990214;70;26225;-42
2022/08/30 09:03:35;;;;;;;2.27;0.40;;;;;;;;;;1989144;71;26256;-42
2022/08/30 09:06:04;;;;;;;0.70;0.47;;;;;;;;;;1982269;71;26340;-44
2022/08/30 09:08:32;;;;;;;2.33;0.47;;;;;;;;;;1973348;71;26268;-48
2022/08/30 09:11:04;;;;;;;2.30;0.57;;;;;;;;;;1972778;71;26304;-44
2022/08/30 09:13:32;;;;;;;0.35;0.35;;;;;;;;;;1971566;71;26307;-46
2022/08/30 09:15:59;;;;;;;0.40;0.40;;;;;;;;;;1996803;71;26721;-45
2022/08/30 09:18:43;;;;;;;0.30;0.30;;;;;;;;;;1964806;71;26426;-43
2022/08/30 09:21:10;;;;;;;1.00;0.42;;;;;;;;;;1973006;70;26252;-43
2022/08/30 09:23:39;;;;;;;0.60;0.40;;;;;;;;;;1990258;70;26287;-42
2022/08/30 09:26:08;;;;;;;1.07;0.40;;;;;;;;;;1980873;71;26301;-45
2022/08/30 09:28:49;;;;;;;0.62;0.30;;;;;;;;;;1976346;71;26315;-43
2022/08/30 09:31:20;;;;;;;1.20;0.50;;;;;;;;;;1972175;71;26283;-42
2022/08/30 09:33:54;;;;;;;0.20;0.20;;;;;;;;;;1992996;70;27276;-42
2022/08/30 09:36:26;;;;;;;0.30;0.30;;;;;;;;;;1967091;71;26736;-44
2022/08/30 09:39:01;;;;;;;0.62;0.50;;;;;;;;;;1973757;71;26695;-41
2022/08/30 09:41:29;;;;;;;0.62;0.25;;;;;;;;;;1971557;71;26248;-42
2022/08/30 09:44:04;;;;;;;0.37;0.20;;;;;;;;;;1971439;71;26272;-42
2022/08/30 09:46:31;;;;;;;0.30;0.30;;;;;;;;;;1984965;71;26582;-50
2022/08/30 09:48:58;;;;;;;0.25;0.25;;;;;;;;;;1966541;71;26334;-45
2022/08/30 09:51:37;;;;;;;0.65;0.23;;;;;;;;;;1972696;71;26258;-47
2022/08/30 09:54:06;;;;;;;0.30;0.30;;;;;;;;;;1973732;71;26323;-42
2022/08/30 09:56:35;;;;;;;0.20;0.20;;;;;;;;;;1986178;70;26700;-43
2022/08/30 09:59:04;;;;;;;0.20;0.20;;;;;;;;;;1938170;71;26309;-43
2022/08/30 10:01:32;;;;;;;2.72;0.40;;;;;;;;;;1979896;71;26354;-45
2022/08/30 10:04:01;;;;;;;0.20;0.20;;;;;;;;;;1982849;70;26300;-43
2022/08/30 10:06:30;;;;;;;0.35;0.30;;;;;;;;;;1984046;70;26342;-43
2022/08/30 10:09:05;;;;;;;0.20;0.20;;;;;;;;;;1967301;71;26306;-42
2022/08/30 10:11:33;;;;;;;0.10;0.10;;;;;;;;;;1988214;71;26213;-43
2022/08/30 10:14:19;;;;;;;0.20;0.20;;;;;;;;;;1971507;71;26314;-42
2022/08/30 10:16:48;;;;;;;3.42;1.05;;;;;;;;;;1975684;71;26667;-44
2022/08/30 10:19:33;;;;;;;0.23;0.23;;;;;;;;;;1972344;71;26308;-43
2022/08/30 10:22:02;;;;;;;0.20;0.20;;;;;;;;;;2001952;71;26702;-42
2022/08/30 10:24:34;;;;;;;0.10;0.10;;;;;;;;;;1979345;70;26212;-44
2022/08/30 10:27:03;;;;;;;0.20;0.20;;;;;;;;;;1974804;71;26790;-43
2022/08/30 10:29:37;;;;;;;0.33;0.33;;;;;;;;;;1967973;71;26677;-43
2022/08/30 10:32:23;;;;;;;0.28;0.28;;;;;;;;;;1971318;71;26241;-43
2022/08/30 10:35:07;;;;;;;0.20;0.20;;;;;;;;;;1976978;70;26794;-46
2022/08/30 10:37:38;;;;;;;0.20;0.20;;;;;;;;;;1996837;70;26285;-45
2022/08/30 10:41:11;;;;;;;0.15;0.15;;;;;;;;;;1973048;71;26780;-43
2022/08/30 10:42:36;;;;;;;0.17;0.17;;;;;;;;;;1976274;71;26701;-44
2022/08/30 10:45:09;;;;;;;0.13;0.13;;;;;;;;;;1995041;70;26188;-42
2022/08/30 10:47:38;;;;;;;0.20;0.20;;;;;;;;;;1975696;70;26231;-45
2022/08/30 10:50:07;;;;;;;0.20;0.20;;;;;;;;;;1991175;71;26242;-46
2022/08/30 10:52:36;;;;;;;0.20;0.20;;;;;;;;;;1991592;70;26387;-47
2022/08/30 10:55:08;;;;;;;0.20;0.20;;;;;;;;;;1983513;70;26313;-42
2022/08/30 10:57:35;;;;;;;0.47;0.20;;;;;;;;;;1959981;71;26243;-43
2022/08/30 11:00:04;;;;;;;0.20;0.20;;;;;;;;;;1977726;71;26790;-42
2022/08/30 11:02:50;;;;;;;0.20;0.20;;;;;;;;;;1970374;71;26220;-43
2022/08/30 11:05:24;;;;;;;0.20;0.20;;;;;;;;;;1977551;70;26275;-42
2022/08/30 11:07:59;;;;;;;0.10;0.10;;;;;;;;;;1969105;71;26475;-42
2022/08/30 11:10:28;;;;;;;0.30;0.30;;;;;;;;;;1969704;71;26301;-47
2022/08/30 11:13:03;;;;;;;0.30;0.30;;;;;;;;;;1965398;71;26267;-40
2022/08/30 11:15:32;;;;;;;0.20;0.20;;;;;;;;;;1970770;70;26283;-41
2022/08/30 11:18:10;;;;;;;0.30;0.30;;;;;;;;;;1980237;71;26221;-42
2022/08/30 11:20:38;;;;;;;0.30;0.30;;;;;;;;;;1975057;71;26202;-43
2022/08/30 11:23:19;;;;;;;0.40;0.40;;;;;;;;;;1970319;71;26667;-47
2022/08/30 11:25:54;;;;;;;0.30;0.28;;;;;;;;;;1974414;71;26264;-44
2022/08/30 11:28:38;;;;;;;0.20;0.20;;;;;;;;;;1978988;71;26215;-43
2022/08/30 11:31:13;;;;;;;0.20;0.20;;;;;;;;;;1972819;70;26321;-45
2022/08/30 11:33:48;;;;;;;0.20;0.20;;;;;;;;;;1981289;71;25818;-43
2022/08/30 11:36:34;;;;;;;0.15;0.15;;;;;;;;;;1986217;71;26298;-43
2022/08/30 11:39:05;;;;;;;0.40;0.40;;;;;;;;;;1986234;70;26290;-43
2022/08/30 11:41:34;;;;;;;0.30;0.30;;;;;;;;;;1980678;71;26257;-43
2022/08/30 11:44:03;;;;;;;0.20;0.20;;;;;;;;;;1983514;70;26264;-44
2022/08/30 11:46:31;;;;;;;0.13;0.13;;;;;;;;;;1962665;71;26243;-43
2022/08/30 11:49:16;;;;;;;0.20;0.20;;;;;;;;;;1978138;70;26295;-44
2022/08/30 11:51:45;;;;;;;0.40;0.20;;;;;;;;;;1973106;71;26273;-44
2022/08/30 11:54:20;;;;;;;0.60;0.20;;;;;;;;;;1980805;71;26348;-44
2022/08/30 11:56:51;;;;;;;0.30;0.30;;;;;;;;;;1974146;71;26731;-47
2022/08/30 11:59:29;;;;;;;0.20;0.20;;;;;;;;;;1976731;71;26258;-41
2022/08/30 12:01:57;;;;;;;0.15;0.15;;;;;;;;;;1984217;71;26282;-44
2022/08/30 12:04:26;;;;;;;0.15;0.15;;;;;;;;;;1991876;71;26220;-44
2022/08/30 12:06:55;;;;;;;0.33;0.28;;;;;;;;;;1980394;71;26210;-45
2022/08/30 12:09:24;;;;;;;0.10;0.10;;;;;;;;;;1964567;71;26288;-48
2022/08/30 12:11:53;;;;;;;0.20;0.20;;;;;;;;;;1963108;71;26288;-46
2022/08/30 12:14:34;;;;;;;0.30;0.30;;;;;;;;;;1974392;71;26329;-44
2022/08/30 12:19:49;;;;;;;0.30;0.30;;;;;;;;;;1962442;70;26287;-42
2022/08/30 12:22:17;;;;;;;0.20;0.20;;;;;;;;;;1982449;71;26877;-43
2022/08/30 12:24:46;;;;;;;0.10;0.10;;;;;;;;;;1988627;70;26252;-43
2022/08/30 12:27:18;;;;;;;0.10;0.10;;;;;;;;;;1920155;71;27369;-45
2022/08/30 12:29:46;;;;;;;0.90;0.20;;;;;;;;;;1976486;71;26206;-43
2022/08/30 12:32:18;;;;;;;0.20;0.20;;;;;;;;;;1977898;71;26271;-42
2022/08/30 12:34:47;;;;;;;0.20;0.20;;;;;;;;;;1983512;70;26251;-41
2022/08/30 12:37:25;;;;;;;0.20;0.10;;;;;;;;;;1984626;70;26379;-42
2022/08/30 12:40:03;;;;;;;1.65;0.20;;;;;;;;;;1976786;71;26308;-45
2022/08/30 12:42:31;;;;;;;0.17;0.17;;;;;;;;;;1962490;71;26451;-46
2022/08/30 12:45:00;;;;;;;2.08;0.30;;;;;;;;;;1970503;71;26252;-47
2022/08/30 12:47:29;;;;;;;0.20;0.20;;;;;;;;;;1988990;70;26298;-47
2022/08/30 12:49:57;;;;;;;1.07;0.20;;;;;;;;;;1988451;71;26302;-44
2022/08/30 12:52:32;;;;;;;0.20;0.20;;;;;;;;;;1977818;70;26267;-43
2022/08/30 12:55:07;;;;;;;1.47;0.28;;;;;;;;;;1975056;70;26267;-48
2022/08/30 12:57:39;;;;;;;2.35;0.30;;;;;;;;;;1966120;71;26239;-42
2022/08/30 13:00:08;;;;;;;1.75;0.20;;;;;;;;;;1966723;71;26233;-42
2022/08/30 13:02:43;;;;;;;0.40;0.25;;;;;;;;;;1972572;70;26529;-45
2022/08/30 13:05:30;;;;;;;0.53;0.30;;;;;;;;;;1967046;71;25663;-43
2022/08/30 13:08:14;;;;;;;0.20;0.20;;;;;;;;;;1977843;71;26286;-44
2022/08/30 13:10:52;;;;;;;0.23;0.23;;;;;;;;;;1966912;71;26299;-43
2022/08/30 13:13:30;;;;;;;0.37;0.20;;;;;;;;;;1983638;70;26243;-43
2022/08/30 13:15:59;;;;;;;0.20;0.20;;;;;;;;;;1977575;70;26863;-42
2022/08/30 13:18:28;;;;;;;0.20;0.20;;;;;;;;;;1987166;71;27438;-45
2022/08/30 13:21:12;;;;;;;0.20;0.20;;;;;;;;;;1962403;71;26536;-42
2022/08/30 13:23:40;;;;;;;0.20;0.20;;;;;;;;;;1993259;71;26663;-41
2022/08/30 13:26:07;;;;;;;0.20;0.20;;;;;;;;;;1970877;71;26728;-41
2022/08/30 13:28:51;;;;;;;0.17;0.17;;;;;;;;;;1987767;71;26235;-44
2022/08/30 13:31:19;;;;;;;0.20;0.17;;;;;;;;;;1981315;71;26791;-46
2022/08/30 13:33:46;;;;;;;0.03;0.03;;;;;;;;;;1984473;70;26240;-44
2022/08/30 13:36:14;;;;;;;0.25;0.25;;;;;;;;;;1970335;71;26743;-45
2022/08/30 13:38:41;;;;;;;0.30;0.30;;;;;;;;;;1987188;70;26310;-44
2022/08/30 13:41:09;;;;;;;0.15;0.15;;;;;;;;;;1978527;71;26758;-43
2022/08/30 13:43:37;;;;;;;0.20;0.20;;;;;;;;;;1992797;70;26771;-47
2022/08/30 13:46:05;;;;;;;0.45;0.23;;;;;;;;;;1982934;70;26287;-44
2022/08/30 13:48:32;;;;;;;0.85;0.05;;;;;;;;;;1980617;71;26808;-45
2022/08/30 13:51:00;;;;;;;1.30;0.30;;;;;;;;;;1970566;71;26196;-46
2022/08/30 13:53:27;;;;;;;0.20;0.20;;;;;;;;;;1973730;71;26321;-46
2022/08/30 13:55:54;;;;;;;0.20;0.20;;;;;;;;;;1973881;71;26228;-40
2022/08/30 13:58:21;;;;;;;0.15;0.15;;;;;;;;;;1978622;70;26193;-44
2022/08/30 14:00:49;;;;;;;0.20;0.20;;;;;;;;;;1963936;71;26735;-47
2022/08/30 14:03:16;;;;;;;1.37;0.20;;;;;;;;;;1979404;71;26710;-44
2022/08/30 14:05:44;;;;;;;0.05;0.05;;;;;;;;;;1978785;71;26759;-43
2022/08/30 14:08:12;;;;;;;0.17;0.13;;;;;;;;;;1977415;71;26310;-43
2022/08/30 14:10:40;;;;;;;0.20;0.20;;;;;;;;;;1966526;71;26325;-45
2022/08/30 14:13:12;;;;;;;0.13;0.13;;;;;;;;;;1980644;70;26347;-43
2022/08/30 14:15:37;;;;;;;0.85;0.30;;;;;;;;;;1973257;71;26233;-45
2022/08/30 14:18:05;;;;;;;0.37;0.25;;;;;;;;;;1969708;71;26336;-45
2022/08/30 14:20:34;;;;;;;1.22;0.30;;;;;;;;;;1976795;71;27418;-49
2022/08/30 14:23:01;;;;;;;0.10;0.10;;;;;;;;;;1971282;71;26769;-45
2022/08/30 14:25:28;;;;;;;0.10;0.10;;;;;;;;;;1971027;71;26311;-47
2022/08/30 14:27:56;;;;;;;0.10;0.10;;;;;;;;;;1983247;71;26227;-48
2022/08/30 14:30:24;;;;;;;0.10;0.10;;;;;;;;;;1972967;71;26209;-44
2022/08/30 14:32:51;;;;;;;0.20;0.10;;;;;;;;;;1977821;70;26301;-44
2022/08/30 14:35:19;;;;;;;0.17;0.17;;;;;;;;;;1976259;71;26313;-45
2022/08/30 14:37:47;;;;;;;1.75;0.30;;;;;;;;;;1979223;70;26323;-47
2022/08/30 14:40:15;;;;;;;0.20;0.20;;;;;;;;;;1996117;70;26590;-43
2022/08/30 14:42:42;;;;;;;0.20;0.20;;;;;;;;;;1981402;71;26354;-45
2022/08/30 14:45:10;;;;;;;0.20;0.20;;;;;;;;;;1985405;70;27346;-46
2022/08/30 14:47:38;;;;;;;0.17;0.17;;;;;;;;;;1974828;70;26344;-45
2022/08/30 14:50:06;;;;;;;0.10;0.10;;;;;;;;;;1968222;71;27339;-45
2022/08/30 14:52:33;;;;;;;0.20;0.20;;;;;;;;;;1969870;71;26684;-50
2022/08/30 14:55:01;;;;;;;0.10;0.10;;;;;;;;;;1976515;71;26516;-44
2022/08/30 14:57:28;;;;;;;0.20;0.20;;;;;;;;;;1975901;71;26251;-44
2022/08/30 14:59:56;;;;;;;0.20;0.20;;;;;;;;;;1966676;71;26820;-43
2022/08/30 15:02:23;;;;;;;0.20;0.20;;;;;;;;;;1981291;71;26807;-47
2022/08/30 15:04:50;;;;;;;0.30;0.30;;;;;;;;;;1970237;71;26365;-45
2022/08/30 15:07:17;;;;;;;0.13;0.10;;;;;;;;;;1999262;70;26233;-43
2022/08/30 15:09:45;;;;;;;0.10;0.10;;;;;;;;;;1967762;71;26230;-45
2022/08/30 15:12:12;;;;;;;0.30;0.30;;;;;;;;;;1998007;70;26310;-45
2022/08/30 15:14:39;;;;;;;2.83;0.37;;;;;;;;;;1984219;70;26282;-44